LEBZ/BJZ METAR and TAF weather

Enter ICAO airport designator
Station Type Date Time Source
LEBZ METAR 2022/06/25 19:30 UTC NOAA

LEBZ 251930Z 29010KT CAVOK 24/06 Q1012


Station Type Date Time Source
LEBZ Decoded METAR 2022/06/25 19:30 UTC NOAA

Badajoz / Talavera La Real, Spain (LEBZ) 38-53N 006-49W 192M
Jun 25, 2022 - 03:30 PM EDT / 2022.06.25 1930 UTC
Wind: from the WNW (290 degrees) at 12 MPH (10 KT):0
Visibility: greater than 7 mile(s):0
Temperature: 75 F (24 C)
Dew Point: 42 F (6 C)
Relative Humidity: 31%
Pressure (altimeter): 29.88 in. Hg (1012 hPa)
ob: LEBZ 251930Z 29010KT CAVOK 24/06 Q1012
cycle: 19

Station Type Date Time Source
LEBZ TAF 2022/06/25 21:30 UTC NOAA

TAF LEBZ 252000Z 2521/2621 28009KT CAVOK TX27/2616Z TN13/2605Z

Example: see airport list